Time;durP1;ratioP1;P1;durP2;ratioP2;P2;SDS_P1;SDS_P2;PMS_P1;PMS_P2;Temp;Humidity;BMP_temperature;BMP_pressure;BME280_temperature;BME280_humidity;BME280_pressure;Samples;Min_cycle;Max_cycle;Signal;HPM_P1;HPM_P2
2022/02/21 00:00:09;;;;;;;101.60;57.33;;;;;;;;;;5055647;28;20028;-66
2022/02/21 00:02:35;;;;;;;110.50;57.47;;;;;;;;;;5055211;28;20220;-64
2022/02/21 00:05:01;;;;;;;94.63;57.22;;;;;;;;;;5055352;28;20056;-67
2022/02/21 00:07:27;;;;;;;77.10;44.78;;;;;;;;;;5055287;28;20423;-68
2022/02/21 00:09:53;;;;;;;53.20;32.38;;;;;;;;;;5055626;28;20371;-68
2022/02/21 00:12:19;;;;;;;55.35;33.33;;;;;;;;;;5055206;28;20025;-62
2022/02/21 00:14:45;;;;;;;125.82;77.05;;;;;;;;;;5055111;28;20021;-63
2022/02/21 00:17:13;;;;;;;63.33;43.95;;;;;;;;;;5054914;28;20078;-67
2022/02/21 00:19:39;;;;;;;46.40;26.13;;;;;;;;;;5054880;28;20516;-68
2022/02/21 00:22:05;;;;;;;55.53;31.58;;;;;;;;;;5054542;28;20380;-68
2022/02/21 00:24:31;;;;;;;171.90;92.35;;;;;;;;;;5054957;28;20017;-68
2022/02/21 00:26:57;;;;;;;46.92;31.73;;;;;;;;;;5054356;28;20036;-68
2022/02/21 00:29:23;;;;;;;47.95;30.38;;;;;;;;;;5054633;28;20487;-68
2022/02/21 00:31:49;;;;;;;55.17;39.35;;;;;;;;;;5054560;28;20116;-69
2022/02/21 00:34:15;;;;;;;47.92;31.20;;;;;;;;;;5054659;28;20029;-67
2022/02/21 00:36:41;;;;;;;167.35;94.00;;;;;;;;;;5054444;28;20025;-67
2022/02/21 00:39:07;;;;;;;108.70;97.45;;;;;;;;;;5054546;28;20074;-67
2022/02/21 00:41:33;;;;;;;78.80;60.58;;;;;;;;;;5054304;28;20025;-68
2022/02/21 00:43:59;;;;;;;70.70;41.28;;;;;;;;;;5054563;28;20029;-67
2022/02/21 00:46:26;;;;;;;92.82;48.05;;;;;;;;;;5054556;28;20017;-68
2022/02/21 00:48:52;;;;;;;112.72;62.67;;;;;;;;;;5054695;28;20021;-68
2022/02/21 00:51:18;;;;;;;106.93;60.80;;;;;;;;;;5054260;28;20036;-68
2022/02/21 00:53:44;;;;;;;155.43;97.47;;;;;;;;;;5054263;28;20070;-69
2022/02/21 00:56:10;;;;;;;164.65;96.93;;;;;;;;;;5054035;28;20017;-68
2022/02/21 00:58:36;;;;;;;110.30;62.40;;;;;;;;;;5054188;28;20041;-70
2022/02/21 01:01:02;;;;;;;91.18;44.75;;;;;;;;;;5054192;28;20479;-68
2022/02/21 01:03:28;;;;;;;132.80;72.78;;;;;;;;;;5054483;28;20037;-68
2022/02/21 01:05:54;;;;;;;84.43;46.65;;;;;;;;;;5053903;28;20025;-68
2022/02/21 01:08:20;;;;;;;84.80;46.05;;;;;;;;;;5054032;28;20024;-69
2022/02/21 01:10:46;;;;;;;195.23;127.00;;;;;;;;;;5053881;28;20033;-68
2022/02/21 01:13:12;;;;;;;117.45;70.63;;;;;;;;;;5053885;28;20025;-71
2022/02/21 01:15:38;;;;;;;50.63;31.65;;;;;;;;;;5053867;28;20076;-69
2022/02/21 01:18:05;;;;;;;46.45;28.20;;;;;;;;;;5053730;28;20119;-69
2022/02/21 01:20:31;;;;;;;41.38;25.35;;;;;;;;;;5035533;28;20120;-69
2022/02/21 01:22:57;;;;;;;53.72;31.52;;;;;;;;;;5053473;28;20430;-69
2022/02/21 01:25:23;;;;;;;42.92;26.55;;;;;;;;;;5053596;28;20025;-69
2022/02/21 01:27:49;;;;;;;29.67;18.58;;;;;;;;;;5053486;28;20029;-69
2022/02/21 01:30:15;;;;;;;36.13;21.92;;;;;;;;;;5053575;28;20024;-69
2022/02/21 01:32:41;;;;;;;77.68;52.03;;;;;;;;;;5053522;28;20396;-69
2022/02/21 01:35:07;;;;;;;42.15;29.60;;;;;;;;;;5053544;28;20056;-68
2022/02/21 01:37:33;;;;;;;71.68;45.78;;;;;;;;;;5053442;28;20031;-69
2022/02/21 01:40:00;;;;;;;75.93;45.17;;;;;;;;;;5051896;28;20031;-69
2022/02/21 01:42:26;;;;;;;78.25;46.15;;;;;;;;;;5035486;28;20502;-69
2022/02/21 01:44:52;;;;;;;33.20;20.92;;;;;;;;;;5053780;28;20044;-66
2022/02/21 01:47:20;;;;;;;80.35;47.17;;;;;;;;;;5053493;28;20112;-69
2022/02/21 01:49:46;;;;;;;51.85;31.05;;;;;;;;;;5053396;28;20032;-69
2022/02/21 01:52:12;;;;;;;80.78;48.63;;;;;;;;;;5053492;28;20028;-69
2022/02/21 01:54:39;;;;;;;82.70;51.47;;;;;;;;;;5053371;28;20049;-68
2022/02/21 01:57:05;;;;;;;195.48;134.70;;;;;;;;;;5053115;28;20033;-69
2022/02/21 01:59:32;;;;;;;114.63;78.90;;;;;;;;;;5053643;28;20021;-69
2022/02/21 02:01:58;;;;;;;41.85;25.58;;;;;;;;;;5053300;28;20033;-63
2022/02/21 02:04:25;;;;;;;71.05;51.78;;;;;;;;;;5053253;28;20079;-69
2022/02/21 02:06:52;;;;;;;38.08;28.25;;;;;;;;;;5053082;28;20100;-69
2022/02/21 02:09:18;;;;;;;61.17;45.83;;;;;;;;;;5053251;28;20029;-69
2022/02/21 02:11:44;;;;;;;43.65;30.80;;;;;;;;;;5052973;28;20210;-67
2022/02/21 02:14:29;;;;;;;51.17;39.08;;;;;;;;;;5053031;28;20028;-69
2022/02/21 02:16:55;;;;;;;34.47;22.70;;;;;;;;;;5053112;28;20051;-69
2022/02/21 02:19:21;;;;;;;43.90;30.02;;;;;;;;;;5052981;28;20468;-69
2022/02/21 02:21:54;;;;;;;54.90;34.78;;;;;;;;;;5052659;28;20064;-65
2022/02/21 02:24:21;;;;;;;100.50;53.72;;;;;;;;;;5053362;28;20107;-66
2022/02/21 02:26:47;;;;;;;34.35;22.38;;;;;;;;;;5052962;28;20037;-69
2022/02/21 02:29:13;;;;;;;23.00;17.30;;;;;;;;;;5052861;28;20113;-69
2022/02/21 02:31:39;;;;;;;34.97;25.20;;;;;;;;;;5052849;28;20064;-69
2022/02/21 02:34:05;;;;;;;24.10;17.67;;;;;;;;;;5052838;28;20022;-69
2022/02/21 02:36:31;;;;;;;27.17;20.20;;;;;;;;;;5053199;28;20514;-69
2022/02/21 02:38:57;;;;;;;32.92;22.48;;;;;;;;;;5052782;28;20040;-67
2022/02/21 02:41:23;;;;;;;25.83;18.63;;;;;;;;;;5052789;28;20021;-69
2022/02/21 02:43:49;;;;;;;27.08;20.67;;;;;;;;;;5052802;28;20040;-71
2022/02/21 02:46:15;;;;;;;29.45;19.00;;;;;;;;;;5052846;28;20022;-65
2022/02/21 02:48:41;;;;;;;25.60;17.92;;;;;;;;;;5052754;28;20036;-66
2022/02/21 02:51:07;;;;;;;45.95;29.42;;;;;;;;;;5056252;28;20043;-69
2022/02/21 02:53:33;;;;;;;35.78;23.98;;;;;;;;;;5056645;28;20082;-69
2022/02/21 02:55:59;;;;;;;31.30;19.88;;;;;;;;;;5056599;28;20021;-69
2022/02/21 02:58:25;;;;;;;34.03;25.00;;;;;;;;;;5056716;28;20055;-69
2022/02/21 03:00:51;;;;;;;35.25;25.58;;;;;;;;;;5056692;28;20471;-69
2022/02/21 03:03:18;;;;;;;43.50;27.80;;;;;;;;;;5056991;28;20119;-65
2022/02/21 03:05:44;;;;;;;105.82;83.03;;;;;;;;;;5056773;28;20074;-69
2022/02/21 03:08:10;;;;;;;23.17;18.85;;;;;;;;;;5056440;28;20036;-69
2022/02/21 03:10:36;;;;;;;20.60;16.45;;;;;;;;;;5038425;28;20479;-69
2022/02/21 03:13:02;;;;;;;31.92;24.65;;;;;;;;;;5056471;28;20029;-68
2022/02/21 03:15:28;;;;;;;21.77;18.13;;;;;;;;;;5056378;28;20027;-69
2022/02/21 03:17:54;;;;;;;20.85;16.25;;;;;;;;;;5056217;28;20121;-69
2022/02/21 03:20:20;;;;;;;20.27;14.57;;;;;;;;;;5056239;28;20087;-69
2022/02/21 03:22:46;;;;;;;23.05;17.38;;;;;;;;;;5055915;28;20049;-69
2022/02/21 03:25:13;;;;;;;22.80;19.75;;;;;;;;;;5056324;28;20036;-69
2022/02/21 03:27:43;;;;;;;21.60;17.23;;;;;;;;;;5056389;28;20479;-64
2022/02/21 03:30:10;;;;;;;24.88;20.00;;;;;;;;;;5056038;28;20104;-68
2022/02/21 03:32:36;;;;;;;23.90;17.50;;;;;;;;;;5056059;28;20433;-69
2022/02/21 03:35:03;;;;;;;24.52;19.08;;;;;;;;;;5055964;28;20052;-69
2022/02/21 03:37:29;;;;;;;21.95;17.80;;;;;;;;;;5055828;28;20024;-69
2022/02/21 03:39:55;;;;;;;31.48;28.08;;;;;;;;;;5055747;28;20031;-66
2022/02/21 03:42:21;;;;;;;26.13;18.15;;;;;;;;;;5055932;28;20155;-66
2022/02/21 03:44:47;;;;;;;22.25;16.35;;;;;;;;;;5055837;28;20048;-69
2022/02/21 03:47:13;;;;;;;28.30;19.23;;;;;;;;;;5055775;28;20040;-68
2022/02/21 03:49:39;;;;;;;28.88;20.95;;;;;;;;;;5055688;28;20060;-69
2022/02/21 03:52:06;;;;;;;33.65;19.67;;;;;;;;;;5055697;28;20039;-69
2022/02/21 03:54:32;;;;;;;32.47;19.75;;;;;;;;;;5055681;28;20033;-69
2022/02/21 03:56:58;;;;;;;37.92;26.17;;;;;;;;;;5055286;28;20116;-69
2022/02/21 03:59:24;;;;;;;28.48;20.55;;;;;;;;;;5055671;28;20029;-66
2022/02/21 04:01:52;;;;;;;32.85;20.25;;;;;;;;;;5055010;28;20047;-68
2022/02/21 04:04:18;;;;;;;28.17;20.90;;;;;;;;;;5055332;28;20037;-69
2022/02/21 04:06:44;;;;;;;28.48;20.35;;;;;;;;;;5055351;28;20070;-69
2022/02/21 04:09:10;;;;;;;29.98;20.73;;;;;;;;;;5055311;28;20483;-69
2022/02/21 04:11:36;;;;;;;23.52;15.88;;;;;;;;;;5055280;28;20106;-69
2022/02/21 04:14:02;;;;;;;22.85;15.55;;;;;;;;;;5055412;28;20029;-66
2022/02/21 04:16:32;;;;;;;23.42;16.85;;;;;;;;;;5055297;28;20059;-68
2022/02/21 04:18:58;;;;;;;30.10;18.13;;;;;;;;;;5055096;28;20037;-66
2022/02/21 04:21:25;;;;;;;29.60;19.30;;;;;;;;;;5054818;28;20040;-68
2022/02/21 04:23:51;;;;;;;25.27;16.92;;;;;;;;;;5055122;28;20051;-69
2022/02/21 04:26:17;;;;;;;26.15;18.13;;;;;;;;;;5054870;28;20048;-67
2022/02/21 04:28:43;;;;;;;26.10;19.08;;;;;;;;;;5055064;28;20043;-69
2022/02/21 04:31:10;;;;;;;28.25;20.75;;;;;;;;;;5055144;28;20029;-66
2022/02/21 04:33:37;;;;;;;34.15;20.83;;;;;;;;;;5055494;28;20025;-67
2022/02/21 04:36:03;;;;;;;32.88;22.40;;;;;;;;;;5054962;28;20154;-69
2022/02/21 04:38:29;;;;;;;39.63;27.15;;;;;;;;;;5054581;28;20033;-69
2022/02/21 04:40:55;;;;;;;36.75;25.98;;;;;;;;;;5055247;28;20028;-64
2022/02/21 04:43:21;;;;;;;38.00;27.30;;;;;;;;;;5054637;28;20039;-69
2022/02/21 04:45:53;;;;;;;39.00;25.05;;;;;;;;;;5054611;28;20021;-69
2022/02/21 04:48:19;;;;;;;47.25;28.92;;;;;;;;;;5054624;28;20025;-69
2022/02/21 04:50:45;;;;;;;36.40;25.77;;;;;;;;;;5055004;28;20025;-69
2022/02/21 04:53:12;;;;;;;47.33;28.77;;;;;;;;;;5054433;28;20103;-68
2022/02/21 04:55:38;;;;;;;46.03;32.85;;;;;;;;;;5054534;28;20025;-68
2022/02/21 04:58:04;;;;;;;46.60;31.42;;;;;;;;;;5054552;28;20051;-69
2022/02/21 05:00:30;;;;;;;42.92;28.70;;;;;;;;;;5054376;28;20063;-69
2022/02/21 05:02:56;;;;;;;37.63;24.50;;;;;;;;;;5054300;28;20456;-69
2022/02/21 05:05:22;;;;;;;101.20;54.35;;;;;;;;;;5054201;28;20021;-69
2022/02/21 05:07:48;;;;;;;94.10;51.97;;;;;;;;;;5054408;28;20104;-67
2022/02/21 05:10:14;;;;;;;45.42;28.15;;;179.30;2252.80;;;;;;5054029;28;20029;-65
2022/02/21 05:12:40;;;;;;;48.67;31.27;;;179.30;2252.80;;;;;;5053774;28;20036;-64
2022/02/21 05:15:07;;;;;;;65.63;37.35;;;179.20;2252.80;;;;;;5053381;28;20021;-67
2022/02/21 05:17:33;;;;;;;63.72;38.42;;;179.50;2252.80;;;;;;5053841;28;20048;-67
2022/02/21 05:19:59;;;;;;;60.50;39.28;;;179.60;2252.80;;;;;;5054081;28;20025;-68
2022/02/21 05:22:25;;;;;;;60.05;41.38;;;;;;;;;;5053650;28;20124;-65
2022/02/21 05:24:52;;;;;;;56.83;36.90;;;;;;;;;;5054117;28;20361;-69
2022/02/21 05:27:18;;;;;;;54.72;32.17;;;;;;;;;;5053655;28;20060;-68
2022/02/21 05:29:45;;;;;;;49.42;31.55;;;;;;;;;;5053970;28;20479;-69
2022/02/21 05:32:11;;;;;;;58.80;34.83;;;;;;;;;;5053750;28;20024;-69
2022/02/21 05:34:37;;;;;;;68.55;45.30;;;;;;;;;;5053624;28;20104;-68
2022/02/21 05:37:04;;;;;;;72.97;50.33;;;;;;;;;;5053644;28;20391;-68
2022/02/21 05:39:30;;;;;;;78.65;52.65;;;;;;;;;;5054081;28;20482;-69
2022/02/21 05:41:56;;;;;;;79.05;50.53;;;;;;;;;;5053416;28;20111;-69
2022/02/21 05:44:22;;;;;;;71.75;45.83;;;;;;;;;;5053567;28;20025;-69
2022/02/21 05:46:48;;;;;;;77.85;47.25;;;;;;;;;;5053440;28;20021;-69
2022/02/21 05:49:14;;;;;;;77.85;50.83;;;;;;;;;;5053527;28;20033;-69
2022/02/21 05:51:40;;;;;;;81.05;51.08;;;;;;;;;;5053098;28;20079;-67
2022/02/21 05:54:07;;;;;;;110.88;72.25;;;;;;;;;;5053326;28;20165;-67
2022/02/21 05:56:33;;;;;;;65.20;45.28;;;;;;;;;;5053664;28;20021;-65
2022/02/21 05:58:59;;;;;;;92.20;55.28;;;;;;;;;;5053413;28;20410;-67
2022/02/21 06:01:25;;;;;;;75.55;51.10;;;;;;;;;;5053366;28;20435;-67
2022/02/21 06:03:51;;;;;;;72.03;47.05;;;;;;;;;;5053091;28;20032;-65
2022/02/21 06:06:17;;;;;;;70.03;53.33;;;179.50;2252.80;;;;;;5053193;28;20056;-65
2022/02/21 06:08:43;;;;;;;74.10;52.78;;;;;;;;;;5053447;28;20055;-67
2022/02/21 06:11:09;;;;;;;71.18;49.83;;;;;;;;;;5052862;28;20021;-69
2022/02/21 06:13:35;;;;;;;69.40;48.67;;;179.40;2252.80;;;;;;5053324;28;20360;-67
2022/02/21 06:16:01;;;;;;;119.22;75.70;;;179.70;2252.80;;;;;;5053121;28;20029;-67
2022/02/21 06:18:29;;;;;;;91.72;58.75;;;179.50;2252.80;;;;;;5052801;28;20033;-67
2022/02/21 06:20:54;;;;;;;90.30;57.13;;;179.60;2252.80;;;;;;5052941;28;20059;-67
2022/02/21 06:23:20;;;;;;;104.13;66.50;;;179.90;2252.80;;;;;;5052560;28;20140;-68
2022/02/21 06:25:47;;;;;;;112.28;84.38;;;;;;;;;;5052486;28;20625;-66
2022/02/21 06:28:13;;;;;;;164.40;127.68;;;;;;;;;;5052984;28;20044;-69
2022/02/21 06:30:39;;;;;;;154.10;110.68;;;179.90;2252.80;;;;;;5052928;28;20379;-67
2022/02/21 06:33:06;;;;;;;135.70;95.32;;;180.00;2252.80;;;;;;5052806;28;20029;-67
2022/02/21 06:35:32;;;;;;;117.88;76.97;;;179.80;2252.80;;;;;;5052878;28;20029;-68
2022/02/21 06:37:59;;;;;;;105.40;69.35;;;;;;;;;;5052570;28;20480;-68
2022/02/21 06:40:26;;;;;;;112.30;77.22;;;;;;;;;;5052764;28;20104;-67
2022/02/21 06:42:55;;;;;;;91.28;56.95;;;;;;;;;;5053124;28;20053;-68
2022/02/21 06:45:21;;;;;;;93.75;60.63;;;;;;;;;;5052903;28;20022;-66
2022/02/21 06:47:47;;;;;;;92.57;60.70;;;;;;;;;;5052747;28;20379;-67
2022/02/21 06:50:14;;;;;;;92.85;60.15;;;205.00;2252.80;;;;;;5052548;28;20051;-65
2022/02/21 06:52:40;;;;;;;95.30;62.40;;;205.00;2252.80;;;;;;5052373;28;20056;-66
2022/02/21 06:55:07;;;;;;;107.03;68.70;;;205.20;2252.80;;;;;;5052887;28;20392;-68
2022/02/21 06:57:33;;;;;;;96.15;59.47;;;;;;;;;;5052401;28;20032;-67
2022/02/21 06:59:59;;;;;;;96.72;63.80;;;205.50;2252.80;;;;;;5052417;28;20079;-67
2022/02/21 07:02:25;;;;;;;237.02;131.98;;;205.70;2252.80;;;;;;5052579;28;20032;-67
2022/02/21 07:04:52;;;;;;;246.02;139.43;;;230.40;2252.80;;;;;;5052615;28;20029;-67
2022/02/21 07:07:19;;;;;;;151.52;111.10;;;;;;;;;;5052531;28;20103;-67
2022/02/21 07:09:45;;;;;;;154.70;113.47;;;;;;;;;;5052575;28;20372;-68
2022/02/21 07:12:11;;;;;;;158.23;114.55;;;;;;;;;;5052218;28;20020;-67
2022/02/21 07:14:37;;;;;;;177.77;136.90;;;;;;;;;;5052252;28;20037;-66
2022/02/21 07:17:03;;;;;;;162.52;119.43;;;;;;;;;;5052102;28;20021;-67
2022/02/21 07:19:29;;;;;;;176.35;130.40;;;;;;;;;;5052239;28;20021;-68
2022/02/21 07:21:55;;;;;;;306.33;176.18;;;;;;;;;;5052270;28;20103;-68
2022/02/21 07:24:21;;;;;;;149.45;112.35;;;;;;;;;;5034330;28;20061;-70
2022/02/21 07:26:47;;;;;;;205.88;126.45;;;;;;;;;;5052171;28;20487;-68
2022/02/21 07:29:13;;;;;;;167.38;123.70;;;;;;;;;;5052118;28;20025;-68
2022/02/21 07:31:39;;;;;;;191.10;140.75;;;;;;;;;;5052260;28;20029;-68
2022/02/21 07:34:07;;;;;;;208.48;144.20;;;;;;;;;;5052319;28;20036;-68
2022/02/21 07:36:34;;;;;;;197.85;135.10;;;;;;;;;;5052488;28;20049;-68
2022/02/21 07:39:01;;;;;;;170.63;123.25;;;;;;;;;;5055886;28;20045;-68
2022/02/21 07:41:28;;;;;;;191.70;134.70;;;;;;;;;;5055452;28;20017;-68
2022/02/21 07:43:54;;;;;;;245.82;157.23;;;;;;;;;;5055859;28;20021;-68
2022/02/21 07:46:20;;;;;;;193.27;142.15;;;;;;;;;;5055710;28;20025;-68
2022/02/21 07:48:46;;;;;;;187.10;142.57;;;;;;;;;;5055495;28;20028;-68
2022/02/21 07:51:12;;;;;;;271.55;171.57;;;;;;;;;;5055540;28;20021;-68
2022/02/21 07:53:38;;;;;;;214.95;151.63;;;;;;;;;;5055582;28;20437;-68
2022/02/21 07:56:05;;;;;;;218.70;158.65;;;;;;;;;;5055479;28;20104;-69
2022/02/21 07:58:31;;;;;;;199.38;145.32;;;;;;;;;;5055450;28;20760;-69
2022/02/21 08:00:57;;;;;;;211.90;149.77;;;;;;;;;;5055329;28;20471;-67
2022/02/21 08:03:23;;;;;;;206.23;151.60;;;;;;;;;;5055521;28;20036;-68
2022/02/21 08:05:49;;;;;;;211.38;151.30;;;;;;;;;;5055442;28;20025;-69
2022/02/21 08:08:15;;;;;;;192.88;144.57;;;;;;;;;;5055259;28;20025;-69
2022/02/21 08:10:41;;;;;;;189.57;141.40;;;;;;;;;;5055324;28;20518;-69
2022/02/21 08:13:07;;;;;;;184.75;136.07;;;;;;;;;;5055243;28;20037;-68
2022/02/21 08:15:33;;;;;;;178.40;131.48;;;;;;;;;;5055222;28;20028;-68
2022/02/21 08:17:59;;;;;;;185.88;139.32;;;;;;;;;;5055100;28;20033;-68
2022/02/21 08:20:25;;;;;;;179.07;133.73;;;308.10;2304.00;;;;;;5055096;28;20108;-68
2022/02/21 08:22:55;;;;;;;171.05;130.48;;;;;;;;;;5054863;28;20124;-69
2022/02/21 08:25:21;;;;;;;147.93;119.40;;;;;;;;;;5054774;28;20498;-69
2022/02/21 08:27:47;;;;;;;148.02;114.45;;;;;;;;;;5054797;28;20117;-69
2022/02/21 08:30:18;;;;;;;157.95;119.43;;;;;;;;;;5054847;28;20024;-68
2022/02/21 08:32:45;;;;;;;153.70;117.72;;;;;;;;;;5054923;28;20403;-68
2022/02/21 08:35:11;;;;;;;147.88;117.70;;;;;;;;;;5036767;28;20502;-70
2022/02/21 08:37:38;;;;;;;141.10;110.82;;;;;;;;;;5054653;28;20495;-68
2022/02/21 08:40:05;;;;;;;151.68;121.20;;;;;;;;;;5054726;28;20017;-69
2022/02/21 08:42:30;;;;;;;171.35;125.57;;;358.60;2329.60;;;;;;5054963;28;20383;-66
2022/02/21 08:44:57;;;;;;;163.13;123.72;;;358.80;2329.60;;;;;;5054533;28;20037;-67
2022/02/21 08:47:23;;;;;;;158.77;124.88;;;358.90;2329.60;;;;;;5054466;28;20021;-67
2022/02/21 08:49:49;;;;;;;167.93;123.85;;;;;;;;;;5054840;28;20360;-67
2022/02/21 08:52:18;;;;;;;147.50;116.95;;;359.10;2329.60;;;;;;5054580;28;20100;-67
2022/02/21 08:54:44;;;;;;;147.02;111.80;;;359.30;2329.60;;;;;;5054407;28;20028;-67
2022/02/21 08:57:11;;;;;;;139.52;107.38;;;;;;;;;;5054185;28;20033;-67
2022/02/21 08:59:36;;;;;;;149.38;115.57;;;384.30;2329.60;;;;;;5054529;28;20029;-67
2022/02/21 09:02:03;;;;;;;154.38;119.53;;;;;;;;;;5054358;28;20021;-68
2022/02/21 09:04:29;;;;;;;147.65;116.15;;;384.90;2329.60;;;;;;5054236;28;20060;-66
2022/02/21 09:06:55;;;;;;;135.57;105.30;;;384.90;2329.60;;;;;;5054163;28;20021;-67
2022/02/21 09:09:23;;;;;;;140.68;104.55;;;409.80;2355.20;;;;;;5053926;28;20021;-67
2022/02/21 09:11:50;;;;;;;143.90;110.60;;;;;;;;;;5053827;28;20475;-68
2022/02/21 09:14:17;;;;;;;135.75;104.50;;;;;;;;;;5054151;28;20021;-68
2022/02/21 09:16:43;;;;;;;80.00;59.58;;;;;;;;;;5053960;28;20059;-66
2022/02/21 09:19:08;;;;;;;69.35;48.50;;;435.70;2150.40;;;;;;5053964;28;20029;-67
2022/02/21 09:21:34;;;;;;;39.42;27.58;;;;;;;;;;5053671;28;20499;-69
2022/02/21 09:24:01;;;;;;;26.83;16.80;;;;;;;;;;5053776;28;20032;-68
2022/02/21 09:26:27;;;;;;;33.25;12.20;;;;;;;;;;5053700;28;20056;-66
2022/02/21 09:28:55;;;;;;;12.32;7.00;;;;;;;;;;5053738;28;20364;-69
2022/02/21 09:31:21;;;;;;;5.72;3.42;;;486.80;1612.80;;;;;;5053403;28;20090;-67
2022/02/21 09:33:47;;;;;;;34.63;12.02;;;487.10;1561.60;;;;;;5053695;28;20033;-68
2022/02/21 09:36:13;;;;;;;10.57;4.95;;;512.00;1561.60;;;;;;5053594;28;20021;-62
2022/02/21 09:38:39;;;;;;;11.85;6.95;;;512.40;1510.40;;;;;;5053574;28;20033;-67
2022/02/21 09:41:05;;;;;;;13.25;4.80;;;;;;;;;;5054013;28;20096;-69
2022/02/21 09:43:31;;;;;;;10.52;3.80;;;538.00;1433.60;;;;;;5053289;28;20076;-68
2022/02/21 09:46:10;;;;;;;6.38;4.32;;;538.50;1382.40;;;;;;5053402;28;20036;-68
2022/02/21 09:48:37;;;;;;;13.48;5.53;;;563.60;1382.40;;;;;;5053345;28;20076;-68
2022/02/21 09:51:04;;;;;;;11.70;4.45;;;563.60;1382.40;;;;;;5053225;28;20029;-69
2022/02/21 09:53:31;;;;;;;7.05;3.97;;;;;;;;;;5053066;28;20471;-68
2022/02/21 09:55:57;;;;;;;6.72;4.32;;;589.10;1280.00;;;;;;5052886;28;20036;-67
2022/02/21 09:58:24;;;;;;;8.20;4.20;;;589.10;1254.40;;;;;;5053031;28;20112;-69
2022/02/21 10:00:50;;;;;;;8.32;5.13;;;;;;;;;;5052603;28;20056;-68
2022/02/21 10:03:35;;;;;;;7.63;5.00;;;;;;;;;;5053477;28;20043;-69
2022/02/21 10:06:11;;;;;;;11.75;4.75;;;;;;;;;;5052972;28;20048;-68
2022/02/21 10:08:57;;;;;;;8.23;5.15;;;615.30;1100.80;;;;;;5052910;28;20475;-67
2022/02/21 10:11:30;;;;;;;17.58;6.57;;;615.30;1126.40;;;;;;5053199;28;20071;-69
2022/02/21 10:13:57;;;;;;;10.23;5.00;;;;;;;;;;5052936;28;20021;-69
2022/02/21 10:16:24;;;;;;;7.18;4.05;;;;;;;;;;5053073;28;20054;-68
2022/02/21 10:18:50;;;;;;;4.82;3.78;;;;;;;;;;5052863;28;20462;-69
2022/02/21 10:21:16;;;;;;;11.20;4.53;;;;;;;;;;5052563;28;20048;-69
2022/02/21 10:23:44;;;;;;;7.95;4.05;;;;;;;;;;5052903;28;20033;-68
2022/02/21 10:26:10;;;;;;;9.25;3.40;;;;;;;;;;5052670;28;20025;-69
2022/02/21 10:28:40;;;;;;;13.10;4.57;;;;;;;;;;5052915;28;20508;-69
2022/02/21 10:31:12;;;;;;;9.80;4.13;;;;;;;;;;5052750;28;20503;-68
2022/02/21 10:33:39;;;;;;;12.32;3.88;;;;;;;;;;5052944;28;20033;-69
2022/02/21 10:36:29;;;;;;;7.22;4.20;;;692.00;921.60;;;;;;5052958;28;20028;-69
2022/02/21 10:38:55;;;;;;;7.05;3.78;;;691.90;921.60;;;;;;5052575;28;20511;-67
2022/02/21 10:41:23;;;;;;;9.55;3.88;;;716.90;921.60;;;;;;5052425;28;20029;-68
2022/02/21 10:43:49;;;;;;;10.80;4.22;;;717.10;972.80;;;;;;5035172;28;20032;-69
2022/02/21 10:46:15;;;;;;;9.23;3.72;;;717.30;947.20;;;;;;5052328;28;20022;-65
2022/02/21 10:48:43;;;;;;;20.88;4.53;;;717.50;921.60;;;;;;5052540;28;20033;-67
2022/02/21 10:51:10;;;;;;;9.25;4.03;;;;;;;;;;5052644;28;20025;-69
2022/02/21 10:53:47;;;;;;;10.40;4.80;;;;;;;;;;5052370;28;20025;-69
2022/02/21 10:56:16;;;;;;;8.90;2.97;;;;;;;;;;5052474;28;20025;-68
2022/02/21 10:58:41;;;;;;;4.18;3.35;;;666.30;921.60;;;;;;5052633;28;20041;-68
2022/02/21 11:01:09;;;;;;;8.85;3.88;;;;;;;;;;5052392;28;20032;-68
2022/02/21 11:03:35;;;;;;;10.35;4.82;;;692.00;896.00;;;;;;5034539;28;20025;-67
2022/02/21 11:06:01;;;;;;;10.95;6.60;;;716.90;921.60;;;;;;5052625;28;20428;-67
2022/02/21 11:08:29;;;;;;;11.20;5.18;;;717.20;1049.60;;;;;;5052244;28;20036;-68
2022/02/21 11:10:59;;;;;;;5.00;3.30;;;;;;;;;;5052294;28;20028;-68
2022/02/21 11:13:28;;;;;;;9.52;6.20;;;743.00;844.80;;;;;;5055815;28;20029;-68
2022/02/21 11:15:54;;;;;;;9.93;5.32;;;743.30;870.40;;;;;;5056066;28;20348;-68
2022/02/21 11:18:21;;;;;;;9.00;4.45;;;742.80;896.00;;;;;;5056188;28;20032;-68
2022/02/21 11:20:47;;;;;;;11.10;5.85;;;;;;;;;;5056101;28;20104;-68
2022/02/21 11:23:13;;;;;;;9.43;5.35;;;768.10;844.80;;;;;;5055902;28;20049;-67
2022/02/21 11:25:54;;;;;;;9.60;5.70;;;768.10;844.80;;;;;;5055769;28;20559;-68
2022/02/21 11:28:23;;;;;;;9.60;4.80;;;;;;;;;;5037869;28;20033;-68
2022/02/21 11:30:52;;;;;;;7.07;4.00;;;743.10;844.80;;;;;;5055908;28;20083;-67
2022/02/21 11:33:18;;;;;;;8.90;4.40;;;742.90;844.80;;;;;;5056253;28;20096;-67
2022/02/21 11:36:06;;;;;;;5.55;3.83;;;742.80;870.40;;;;;;5055574;28;20029;-66
2022/02/21 11:38:33;;;;;;;13.15;7.32;;;;;;;;;;5055696;28;20119;-69
2022/02/21 11:41:33;;;;;;;7.00;3.80;;;717.00;896.00;;;;;;5055367;28;20430;-65
2022/02/21 11:44:21;;;;;;;7.57;4.00;;;717.10;870.40;;;;;;5013765;28;20026;-67
2022/02/21 11:46:47;;;;;;;10.93;7.32;;;717.10;896.00;;;;;;5013958;28;20030;-67
2022/02/21 11:49:26;;;;;;;9.23;4.68;;;;;;;;;;5013711;28;20034;-67
2022/02/21 11:51:52;;;;;;;18.83;11.85;;;;;;;;;;5014121;28;20505;-69
2022/02/21 11:54:21;;;;;;;5.15;2.75;;;;;;;;;;5013769;28;20040;-68
2022/02/21 11:56:50;;;;;;;7.32;5.30;;;691.30;896.00;;;;;;5013548;28;20476;-65
2022/02/21 11:59:22;;;;;;;7.38;6.18;;;666.40;921.60;;;;;;5013522;28;20038;-67
2022/02/21 12:02:12;;;;;;;7.43;4.47;;;691.20;896.00;;;;;;5013392;28;20038;-68
2022/02/21 12:04:49;;;;;;;4.20;3.47;;;691.20;921.60;;;;;;5013640;28;20108;-67
2022/02/21 12:07:22;;;;;;;6.70;4.15;;;691.20;947.20;;;;;;5013352;28;20057;-69
2022/02/21 12:10:09;;;;;;;8.90;5.32;;;691.30;896.00;;;;;;5013288;28;20049;-68
2022/02/21 12:12:50;;;;;;;6.60;5.20;;;691.60;921.60;;;;;;5013210;28;20029;-69
2022/02/21 12:15:17;;;;;;;5.38;3.22;;;691.60;921.60;;;;;;5013426;28;20125;-68
2022/02/21 12:17:43;;;;;;;12.60;7.22;;;;;;;;;;5013409;28;20077;-69
2022/02/21 12:20:28;;;;;;;7.95;5.47;;;;;;;;;;5025533;28;20061;-68
2022/02/21 12:23:06;;;;;;;6.00;4.15;;;;;;;;;;5054084;28;20415;-69
2022/02/21 12:25:38;;;;;;;7.03;4.90;;;;;;;;;;5054892;28;20078;-69
2022/02/21 12:28:14;;;;;;;6.95;4.28;;;666.50;896.00;;;;;;5055213;28;20028;-65
2022/02/21 12:30:41;;;;;;;7.25;4.65;;;640.90;947.20;;;;;;5054767;28;20025;-65
2022/02/21 12:33:08;;;;;;;8.13;4.80;;;;;;;;;;5055170;28;20036;-67
2022/02/21 12:35:46;;;;;;;6.85;4.93;;;;;;;;;;5054472;28;20040;-68
2022/02/21 12:38:13;;;;;;;13.10;5.97;;;;;;;;;;5036719;28;20090;-69
2022/02/21 12:40:50;;;;;;;10.20;7.25;;;;;;;;;;5054553;28;20024;-69
2022/02/21 12:43:16;;;;;;;11.52;5.65;;;;;;;;;;5054536;28;20025;-67
2022/02/21 12:45:43;;;;;;;11.48;6.35;;;;;;;;;;5054427;28;20549;-68
2022/02/21 12:48:09;;;;;;;11.25;7.07;;;;;;;;;;5054783;28;20025;-69
2022/02/21 12:50:35;;;;;;;19.33;10.77;;;;;;;;;;5036340;28;20021;-69
2022/02/21 12:53:04;;;;;;;13.90;8.10;;;;;;;;;;5054211;28;20100;-69
2022/02/21 12:55:30;;;;;;;9.20;6.53;;;;;;;;;;5054278;28;20105;-69
2022/02/21 12:57:56;;;;;;;10.50;4.50;;;;;;;;;;5054355;28;20383;-67
2022/02/21 13:00:32;;;;;;;7.45;4.25;;;;;;;;;;5054063;28;20029;-68
2022/02/21 13:02:59;;;;;;;9.20;5.22;;;;;;;;;;5054096;28;20104;-68
2022/02/21 13:05:28;;;;;;;9.48;4.82;;;614.70;998.40;;;;;;5054182;28;20086;-68
2022/02/21 13:07:54;;;;;;;13.57;7.55;;;589.70;998.40;;;;;;5053966;28;20395;-67
2022/02/21 13:10:20;;;;;;;13.95;9.70;;;589.50;1049.60;;;;;;5054188;28;20029;-69
2022/02/21 13:12:49;;;;;;;16.35;9.35;;;;;;;;;;5053980;28;20167;-69
2022/02/21 13:15:15;;;;;;;18.55;14.02;;;;;;;;;;5053687;28;20017;-67
2022/02/21 13:17:41;;;;;;;17.17;11.63;;;;;;;;;;5053466;28;20021;-69
2022/02/21 13:20:07;;;;;;;14.88;9.70;;;;;;;;;;5053677;28;20092;-62
2022/02/21 13:22:36;;;;;;;16.88;7.65;;;;;;;;;;5053431;28;20045;-69
2022/02/21 13:25:04;;;;;;;19.42;13.55;;;588.80;1100.80;;;;;;5053693;28;20025;-67
2022/02/21 13:27:37;;;;;;;19.35;11.93;;;564.10;1100.80;;;;;;5053607;28;20521;-66
2022/02/21 13:30:14;;;;;;;9.45;6.03;;;564.00;1100.80;;;;;;5053223;28;20104;-67
2022/02/21 13:32:42;;;;;;;9.60;4.13;;;564.10;1100.80;;;;;;5044999;28;20049;-68
2022/02/21 13:35:19;;;;;;;8.00;5.20;;;564.10;1075.20;;;;;;5052655;28;20403;-68
2022/02/21 13:37:50;;;;;;;10.02;5.00;;;564.00;1100.80;;;;;;5053290;28;20368;-63
2022/02/21 13:40:16;;;;;;;;;;;563.90;1126.40;;;;;;5053662;28;20049;-65